createdAt,value
2018-05-31T00:00:45.507Z,2.90
2018-05-31T00:03:11.964Z,2.40
2018-05-31T00:05:38.964Z,2.93
2018-05-31T00:08:06.383Z,2.47
2018-05-31T00:10:32.777Z,2.60
2018-05-31T00:12:59.223Z,2.30
2018-05-31T00:15:25.823Z,2.20
2018-05-31T00:17:52.173Z,2.37
2018-05-31T00:20:18.569Z,2.53
2018-05-31T00:22:44.906Z,2.90
2018-05-31T00:25:11.381Z,2.93
2018-05-31T00:27:37.685Z,2.53
2018-05-31T00:30:04.033Z,2.80
2018-05-31T00:32:30.538Z,3.27
2018-05-31T00:34:56.934Z,2.60
2018-05-31T00:37:23.339Z,2.20
2018-05-31T00:39:49.777Z,2.60
2018-05-31T00:42:16.160Z,2.60
2018-05-31T00:44:42.606Z,2.60
2018-05-31T00:47:08.988Z,2.20
2018-05-31T00:49:35.364Z,2.37
2018-05-31T00:52:01.772Z,2.30
2018-05-31T00:54:28.152Z,2.37
2018-05-31T00:56:54.601Z,2.60
2018-05-31T00:59:21.003Z,2.17
2018-05-31T01:01:47.366Z,3.67
2018-05-31T01:04:14.000Z,2.97
2018-05-31T01:06:40.470Z,2.10
2018-05-31T01:09:06.909Z,2.77
2018-05-31T01:11:33.285Z,2.20
2018-05-31T01:13:59.804Z,2.10
2018-05-31T01:16:26.532Z,2.33
2018-05-31T01:18:52.948Z,2.50
2018-05-31T01:21:19.422Z,2.30
2018-05-31T01:23:46.060Z,2.00
2018-05-31T01:26:12.562Z,2.30
2018-05-31T01:28:39.043Z,1.90
2018-05-31T01:31:05.622Z,2.00
2018-05-31T01:33:31.976Z,2.30
2018-05-31T01:35:59.414Z,2.33
2018-05-31T01:38:26.144Z,2.40
2018-05-31T01:40:53.053Z,2.93
2018-05-31T01:43:19.446Z,2.03
2018-05-31T01:45:45.795Z,2.00
2018-05-31T01:48:12.338Z,3.10
2018-05-31T01:50:38.712Z,2.20
2018-05-31T01:53:05.083Z,2.07
2018-05-31T01:55:31.492Z,2.30
2018-05-31T01:57:58.383Z,1.80
2018-05-31T02:00:24.837Z,1.80
2018-05-31T02:02:51.292Z,2.03
2018-05-31T02:05:17.827Z,2.20
2018-05-31T02:07:44.208Z,2.20
2018-05-31T02:10:10.573Z,2.10
2018-05-31T02:12:37.122Z,2.43
2018-05-31T02:15:03.473Z,2.20
2018-05-31T02:17:29.825Z,2.00
2018-05-31T02:19:56.276Z,1.83
2018-05-31T02:22:22.679Z,2.10
2018-05-31T02:24:49.078Z,2.27
2018-05-31T02:27:15.551Z,2.17
2018-05-31T02:29:41.928Z,2.00
2018-05-31T02:32:08.423Z,2.33
2018-05-31T02:34:34.916Z,2.00
2018-05-31T02:37:01.315Z,2.47
2018-05-31T02:39:27.815Z,2.10
2018-05-31T02:41:54.349Z,1.93
2018-05-31T02:44:20.794Z,2.30
2018-05-31T02:46:47.238Z,2.00
2018-05-31T02:49:13.607Z,2.27
2018-05-31T02:51:40.176Z,2.03
2018-05-31T02:54:06.625Z,2.00
2018-05-31T02:56:33.059Z,1.97
2018-05-31T02:58:59.457Z,1.90
2018-05-31T03:01:25.957Z,2.10
2018-05-31T03:03:52.316Z,2.00
2018-05-31T03:06:18.798Z,2.23
2018-05-31T03:08:45.554Z,2.00
2018-05-31T03:11:11.967Z,1.93
2018-05-31T03:13:38.340Z,2.00
2018-05-31T03:16:05.021Z,1.87
2018-05-31T03:18:31.472Z,1.90
2018-05-31T03:20:57.836Z,2.20
2018-05-31T03:23:24.242Z,1.80
2018-05-31T03:25:50.732Z,2.00
2018-05-31T03:28:17.113Z,1.90
2018-05-31T03:30:43.581Z,2.00
2018-05-31T03:33:09.977Z,2.00
2018-05-31T03:35:36.408Z,1.83
2018-05-31T03:38:03.016Z,2.63
2018-05-31T03:40:29.395Z,2.00
2018-05-31T03:42:55.815Z,2.20
2018-05-31T03:45:22.308Z,1.70
2018-05-31T03:47:48.708Z,2.10
2018-05-31T03:50:15.145Z,2.70
2018-05-31T03:52:41.534Z,2.57
2018-05-31T03:55:07.896Z,1.77
2018-05-31T03:57:34.280Z,1.90
2018-05-31T04:00:00.687Z,6.17
2018-05-31T04:02:27.080Z,5.23
2018-05-31T04:04:53.432Z,2.70
2018-05-31T04:07:19.769Z,5.07
2018-05-31T04:09:46.183Z,7.63
2018-05-31T04:12:12.613Z,2.57
2018-05-31T04:14:39.046Z,1.83
2018-05-31T04:17:05.454Z,2.17
2018-05-31T04:19:31.810Z,2.10
2018-05-31T04:21:58.333Z,2.00
2018-05-31T04:24:24.973Z,2.93
2018-05-31T04:26:51.403Z,8.93
2018-05-31T04:29:17.831Z,8.40
2018-05-31T04:31:44.496Z,17.87
2018-05-31T04:34:10.949Z,7.07
2018-05-31T04:36:37.336Z,28.70
2018-05-31T04:39:03.784Z,58.50
2018-05-31T04:41:30.255Z,31.30
2018-05-31T04:43:56.600Z,19.00
2018-05-31T04:46:22.949Z,22.77
2018-05-31T04:48:49.344Z,19.30
2018-05-31T04:51:15.726Z,17.27
2018-05-31T04:53:42.132Z,24.63
2018-05-31T04:56:08.497Z,8.93
2018-05-31T04:58:34.957Z,16.57
2018-05-31T05:01:01.370Z,16.17
2018-05-31T05:03:27.798Z,13.70
2018-05-31T05:05:54.448Z,10.03
2018-05-31T05:08:20.844Z,13.17
2018-05-31T05:10:47.566Z,8.40
2018-05-31T05:13:14.728Z,9.47
2018-05-31T05:15:41.200Z,14.30
2018-05-31T05:18:07.600Z,10.00
2018-05-31T05:20:33.960Z,9.53
2018-05-31T05:23:00.335Z,6.23
2018-05-31T05:25:26.738Z,4.77
2018-05-31T05:27:53.167Z,12.87
2018-05-31T05:30:19.577Z,5.53
2018-05-31T05:32:45.930Z,5.30
2018-05-31T05:35:13.352Z,9.53
2018-05-31T05:37:39.691Z,8.73
2018-05-31T05:40:06.077Z,8.63
2018-05-31T05:42:33.208Z,6.10
2018-05-31T05:44:59.548Z,4.77
2018-05-31T05:47:25.980Z,6.70
2018-05-31T05:49:52.350Z,6.53
2018-05-31T05:52:18.775Z,5.03
2018-05-31T05:54:45.140Z,4.30
2018-05-31T05:57:11.612Z,8.93
2018-05-31T05:59:37.974Z,5.00
2018-05-31T06:02:04.315Z,8.60
2018-05-31T06:04:30.701Z,4.33
2018-05-31T06:06:57.139Z,3.53
2018-05-31T06:09:23.981Z,3.53
2018-05-31T06:11:50.449Z,10.63
2018-05-31T06:14:16.777Z,7.20
2018-05-31T06:16:43.154Z,5.47
2018-05-31T06:19:09.644Z,3.43
2018-05-31T06:21:36.044Z,5.50
2018-05-31T06:24:02.389Z,6.43
2018-05-31T06:26:28.894Z,4.27
2018-05-31T06:28:55.235Z,3.80
2018-05-31T06:31:21.594Z,3.07
2018-05-31T06:33:47.993Z,12.50
2018-05-31T06:36:14.450Z,5.53
2018-05-31T06:38:41.086Z,5.77
2018-05-31T06:41:07.536Z,5.47
2018-05-31T06:43:33.909Z,4.07
2018-05-31T06:46:00.371Z,8.37
2018-05-31T06:48:26.720Z,7.53
2018-05-31T06:50:53.083Z,9.10
2018-05-31T06:53:19.515Z,5.83
2018-05-31T06:55:45.907Z,7.80
2018-05-31T06:58:12.241Z,6.67
2018-05-31T07:00:38.602Z,3.37
2018-05-31T07:03:05.336Z,2.57
2018-05-31T07:05:31.785Z,9.17
2018-05-31T07:07:58.349Z,9.27
2018-05-31T07:10:25.388Z,4.60
2018-05-31T07:12:51.753Z,6.63
2018-05-31T07:15:18.458Z,7.60
2018-05-31T07:17:45.964Z,10.00
2018-05-31T07:20:12.539Z,13.33
2018-05-31T07:22:39.133Z,7.40
2018-05-31T07:25:05.535Z,4.80
2018-05-31T07:27:31.921Z,5.57
2018-05-31T07:29:58.499Z,3.10
2018-05-31T07:32:25.137Z,8.30
2018-05-31T07:34:51.568Z,4.03
2018-05-31T07:37:17.972Z,10.23
2018-05-31T07:39:44.859Z,15.33
2018-05-31T07:42:12.209Z,7.47
2018-05-31T07:44:39.115Z,5.03
2018-05-31T07:47:05.892Z,10.60
2018-05-31T07:49:32.258Z,5.73
2018-05-31T07:51:59.272Z,7.80
2018-05-31T07:54:25.984Z,4.33
2018-05-31T07:56:52.446Z,3.70
2018-05-31T07:59:19.061Z,5.87
2018-05-31T08:01:45.700Z,6.23
2018-05-31T08:04:12.164Z,26.10
2018-05-31T08:06:39.144Z,6.30
2018-05-31T08:09:05.661Z,4.33
2018-05-31T08:11:32.573Z,5.10
2018-05-31T08:13:59.324Z,13.40
2018-05-31T08:16:25.773Z,8.70
2018-05-31T08:18:52.255Z,5.87
2018-05-31T08:21:18.811Z,5.27
2018-05-31T08:23:45.376Z,7.23
2018-05-31T08:26:12.323Z,5.73
2018-05-31T08:28:39.030Z,13.30
2018-05-31T08:31:05.782Z,9.43
2018-05-31T08:33:33.775Z,8.77
2018-05-31T08:36:00.760Z,9.13
2018-05-31T08:38:27.266Z,10.73
2018-05-31T08:40:53.845Z,11.63
2018-05-31T08:43:20.675Z,6.73
2018-05-31T08:45:47.160Z,12.53
2018-05-31T08:48:13.655Z,9.63
2018-05-31T08:50:40.201Z,7.83
2018-05-31T08:53:06.574Z,5.27
2018-05-31T08:55:34.270Z,2.83
2018-05-31T08:58:01.065Z,6.37
2018-05-31T09:00:27.586Z,15.63
2018-05-31T09:02:53.992Z,3.83
2018-05-31T09:05:20.713Z,8.43
2018-05-31T09:07:47.407Z,9.60
2018-05-31T09:10:13.961Z,5.40
2018-05-31T09:12:40.945Z,6.73
2018-05-31T09:15:07.615Z,3.70
2018-05-31T09:17:34.260Z,3.10
2018-05-31T09:20:02.075Z,3.40
2018-05-31T09:22:28.540Z,5.43
2018-05-31T09:24:55.167Z,5.80
2018-05-31T09:27:21.874Z,5.17
2018-05-31T09:29:48.663Z,11.73
2018-05-31T09:32:15.927Z,3.37
2018-05-31T09:34:42.541Z,2.77
2018-05-31T09:37:09.133Z,6.53
2018-05-31T09:39:35.712Z,2.80
2018-05-31T09:42:04.843Z,3.30
2018-05-31T09:44:31.755Z,5.17
2018-05-31T09:47:02.077Z,5.00
2018-05-31T09:49:29.039Z,5.53
2018-05-31T09:51:56.064Z,7.50
2018-05-31T09:54:22.724Z,7.00
2018-05-31T09:56:49.172Z,9.67
2018-05-31T09:59:15.815Z,6.80
2018-05-31T10:01:43.194Z,3.80
2018-05-31T10:04:10.028Z,6.43
2018-05-31T10:06:37.143Z,7.80
2018-05-31T10:09:04.346Z,8.27
2018-05-31T10:11:31.057Z,3.30
2018-05-31T10:13:57.745Z,5.23
2018-05-31T10:16:24.380Z,6.90
2018-05-31T10:18:52.079Z,6.20
2018-05-31T10:21:20.309Z,4.87
2018-05-31T10:23:46.751Z,8.23
2018-05-31T10:26:13.250Z,7.80
2018-05-31T10:28:39.973Z,5.40
2018-05-31T10:31:06.503Z,8.77
2018-05-31T10:33:33.449Z,6.10
2018-05-31T10:36:00.250Z,5.43
2018-05-31T10:38:29.181Z,4.90
2018-05-31T10:40:55.709Z,5.87
2018-05-31T10:43:22.199Z,6.80
2018-05-31T10:45:48.837Z,11.17
2018-05-31T10:48:18.956Z,4.07
2018-05-31T10:50:54.333Z,3.30
2018-05-31T10:53:21.406Z,10.17
2018-05-31T10:55:48.055Z,5.90
2018-05-31T10:58:14.868Z,8.03
2018-05-31T11:00:41.714Z,10.40
2018-05-31T11:03:08.333Z,5.93
2018-05-31T11:05:35.092Z,6.50
2018-05-31T11:08:01.977Z,6.57
2018-05-31T11:15:47.022Z,7.27
2018-05-31T11:18:14.018Z,4.93
2018-05-31T11:20:41.070Z,3.93
2018-05-31T11:23:07.910Z,6.87
2018-05-31T11:25:35.255Z,6.40
2018-05-31T11:28:05.646Z,6.43
2018-05-31T11:33:11.299Z,5.87
2018-05-31T11:35:37.818Z,11.43
2018-05-31T11:38:04.369Z,8.10
2018-05-31T11:40:30.764Z,7.87
2018-05-31T11:42:57.644Z,4.20
2018-05-31T11:45:24.157Z,4.17
2018-05-31T11:47:50.679Z,6.07
2018-05-31T11:50:17.475Z,4.80
2018-05-31T11:52:43.959Z,5.70
2018-05-31T11:55:10.669Z,4.30
2018-05-31T11:57:37.413Z,5.23
2018-05-31T12:00:04.073Z,2.53
2018-05-31T12:02:30.757Z,15.17
2018-05-31T12:04:57.332Z,12.77
2018-05-31T12:07:23.725Z,6.40
2018-05-31T12:09:50.392Z,5.47
2018-05-31T12:12:16.890Z,7.13
2018-05-31T12:14:43.696Z,13.73
2018-05-31T12:17:10.445Z,9.90
2018-05-31T12:19:36.983Z,15.87
2018-05-31T12:22:03.761Z,3.70
2018-05-31T12:24:30.383Z,5.93
2018-05-31T12:26:57.043Z,6.20
2018-05-31T12:29:23.569Z,11.03
2018-05-31T12:31:50.002Z,13.13
2018-05-31T12:34:18.186Z,5.33
2018-05-31T12:36:44.629Z,13.80
2018-05-31T12:39:11.013Z,8.70
2018-05-31T12:41:37.502Z,7.43
2018-05-31T12:44:03.981Z,7.67
2018-05-31T12:46:30.423Z,5.17
2018-05-31T12:48:56.886Z,5.53
2018-05-31T12:51:23.315Z,11.33
2018-05-31T12:53:50.033Z,10.30
2018-05-31T12:56:16.565Z,12.37
2018-05-31T12:58:43.521Z,7.83
2018-05-31T13:01:12.623Z,4.93
2018-05-31T13:03:39.207Z,15.77
2018-05-31T13:06:05.750Z,20.47
2018-05-31T13:08:32.306Z,7.70
2018-05-31T13:10:58.851Z,5.70
2018-05-31T13:13:25.308Z,4.37
2018-05-31T13:15:53.899Z,7.03
2018-05-31T13:18:20.524Z,3.33
2018-05-31T13:20:47.171Z,7.43
2018-05-31T13:23:13.622Z,10.70
2018-05-31T13:25:41.353Z,4.90
2018-05-31T13:28:07.956Z,12.10
2018-05-31T13:30:34.809Z,13.20
2018-05-31T13:33:01.476Z,4.53
2018-05-31T13:35:30.325Z,8.00
2018-05-31T13:37:56.824Z,5.93
2018-05-31T13:40:26.938Z,3.60
2018-05-31T13:42:53.805Z,12.17
2018-05-31T13:45:20.416Z,5.30
2018-05-31T13:47:46.988Z,8.00
2018-05-31T13:52:45.392Z,13.80
2018-05-31T13:55:12.225Z,12.20
2018-05-31T13:57:40.411Z,8.13
2018-05-31T14:00:07.388Z,4.10
2018-05-31T14:02:34.206Z,7.47
2018-05-31T14:05:01.074Z,8.53
2018-05-31T14:07:27.761Z,4.17
2018-05-31T14:09:54.146Z,9.53
2018-05-31T14:12:20.978Z,20.77
2018-05-31T14:14:48.594Z,10.30
2018-05-31T14:17:15.219Z,7.43
2018-05-31T14:19:41.863Z,8.80
2018-05-31T14:22:08.572Z,4.63
2018-05-31T14:24:35.249Z,9.30
2018-05-31T14:27:01.907Z,5.50
2018-05-31T14:29:28.828Z,6.60
2018-05-31T14:31:55.496Z,4.90
2018-05-31T14:34:22.207Z,6.37
2018-05-31T14:36:48.793Z,3.70
2018-05-31T14:39:15.679Z,9.60
2018-05-31T14:41:42.267Z,8.43
2018-05-31T14:44:09.713Z,3.53
2018-05-31T14:46:37.473Z,6.67
2018-05-31T14:49:03.908Z,7.90
2018-05-31T14:51:30.681Z,9.33
2018-05-31T14:53:57.634Z,6.03
2018-05-31T14:56:24.120Z,6.70
2018-05-31T14:58:50.507Z,6.07
2018-05-31T15:01:16.940Z,6.00
2018-05-31T15:03:43.610Z,3.90
2018-05-31T15:06:10.399Z,7.60
2018-05-31T15:08:37.238Z,5.30
2018-05-31T15:11:03.859Z,8.93
2018-05-31T15:13:30.576Z,6.10
2018-05-31T15:15:57.354Z,3.70
2018-05-31T15:18:23.855Z,8.00
2018-05-31T15:20:50.287Z,8.90
2018-05-31T15:23:16.653Z,7.23
2018-05-31T15:25:43.389Z,5.90
2018-05-31T15:28:10.988Z,6.87
2018-05-31T15:30:37.469Z,15.10
2018-05-31T15:33:04.025Z,6.43
2018-05-31T15:35:30.436Z,7.50
2018-05-31T15:37:57.574Z,7.40
2018-05-31T15:40:24.055Z,6.13
2018-05-31T15:42:50.441Z,5.80
2018-05-31T15:45:16.844Z,5.73
2018-05-31T15:47:43.322Z,4.00
2018-05-31T15:50:09.841Z,4.00
2018-05-31T15:52:36.342Z,9.00
2018-05-31T15:55:02.958Z,4.70
2018-05-31T15:57:29.615Z,8.30
2018-05-31T15:59:55.953Z,6.93
2018-05-31T16:02:22.349Z,7.47
2018-05-31T16:04:48.914Z,3.53
2018-05-31T16:07:15.279Z,3.30
2018-05-31T16:09:41.781Z,7.20
2018-05-31T16:12:08.168Z,3.97
2018-05-31T16:14:34.496Z,12.33
2018-05-31T16:17:02.314Z,6.13
2018-05-31T16:19:28.796Z,3.80
2018-05-31T16:21:55.200Z,2.40
2018-05-31T16:24:21.565Z,3.53
2018-05-31T16:26:47.895Z,2.10
2018-05-31T16:29:14.337Z,4.43
2018-05-31T16:31:41.599Z,2.47
2018-05-31T16:34:07.999Z,8.17
2018-05-31T16:36:34.559Z,3.23
2018-05-31T16:39:01.742Z,4.17
2018-05-31T16:41:29.196Z,4.50
2018-05-31T16:43:55.637Z,5.00
2018-05-31T16:46:22.020Z,2.00
2018-05-31T16:48:48.395Z,5.10
2018-05-31T16:51:15.876Z,2.53
2018-05-31T16:53:42.403Z,3.17
2018-05-31T16:56:09.381Z,4.23
2018-05-31T16:58:35.780Z,2.23
2018-05-31T17:01:02.184Z,3.63
2018-05-31T17:03:28.581Z,3.00
2018-05-31T17:05:55.008Z,6.63
2018-05-31T17:08:21.529Z,5.57
2018-05-31T17:10:47.881Z,4.77
2018-05-31T17:13:15.538Z,3.13
2018-05-31T17:15:42.001Z,6.20
2018-05-31T17:18:08.683Z,2.60
2018-05-31T17:20:35.016Z,9.63
2018-05-31T17:23:01.361Z,11.63
2018-05-31T17:25:27.726Z,6.97
2018-05-31T17:27:54.476Z,10.33
2018-05-31T17:30:20.885Z,6.33
2018-05-31T17:32:47.287Z,5.50
2018-05-31T17:35:13.665Z,4.93
2018-05-31T17:37:40.023Z,6.63
2018-05-31T17:40:06.432Z,4.90
2018-05-31T17:42:32.804Z,5.10
2018-05-31T17:44:59.735Z,4.90
2018-05-31T17:47:26.089Z,4.20
2018-05-31T17:49:52.525Z,5.27
2018-05-31T17:52:18.904Z,4.23
2018-05-31T17:54:45.700Z,7.33
2018-05-31T17:57:12.182Z,6.63
2018-05-31T17:59:38.554Z,3.77
2018-05-31T18:02:05.754Z,5.10
2018-05-31T18:04:32.146Z,6.00
2018-05-31T18:06:58.539Z,3.03
2018-05-31T18:09:24.936Z,6.30
2018-05-31T18:11:51.344Z,3.90
2018-05-31T18:14:17.771Z,5.80
2018-05-31T18:16:44.101Z,5.70
2018-05-31T18:19:10.654Z,4.67
2018-05-31T18:21:37.026Z,5.57
2018-05-31T18:24:03.404Z,3.03
2018-05-31T18:26:31.096Z,5.33
2018-05-31T18:28:57.548Z,5.50
2018-05-31T18:31:23.940Z,4.67
2018-05-31T18:33:50.340Z,3.83
2018-05-31T18:36:16.759Z,2.90
2018-05-31T18:38:43.097Z,6.40
2018-05-31T18:41:09.522Z,4.50
2018-05-31T18:43:36.314Z,3.03
2018-05-31T18:46:02.636Z,5.73
2018-05-31T18:48:29.162Z,3.80
2018-05-31T18:50:55.479Z,4.23
2018-05-31T18:53:21.859Z,7.33
2018-05-31T18:55:48.196Z,3.20
2018-05-31T18:58:14.649Z,5.17
2018-05-31T19:00:41.379Z,3.40
2018-05-31T19:03:08.222Z,3.20
2018-05-31T19:05:34.747Z,4.63
2018-05-31T19:08:01.102Z,7.07
2018-05-31T19:10:27.528Z,4.40
2018-05-31T19:12:55.187Z,3.10
2018-05-31T19:15:21.769Z,4.10
2018-05-31T19:17:47.892Z,2.70
2018-05-31T19:20:14.959Z,12.67
2018-05-31T19:22:41.279Z,4.27
2018-05-31T19:25:07.657Z,7.17
2018-05-31T19:27:33.995Z,3.03
2018-05-31T19:30:00.361Z,5.10
2018-05-31T19:32:26.869Z,4.63
2018-05-31T19:34:54.435Z,2.83
2018-05-31T19:37:20.813Z,4.57
2018-05-31T19:39:47.238Z,4.20
2018-05-31T19:42:13.554Z,4.93
2018-05-31T19:44:40.047Z,5.40
2018-05-31T19:47:06.385Z,2.90
2018-05-31T19:49:32.916Z,4.07
2018-05-31T19:52:00.257Z,2.00
2018-05-31T19:54:26.632Z,2.57
2018-05-31T19:56:53.044Z,3.03
2018-05-31T19:59:19.424Z,3.10
2018-05-31T20:01:45.792Z,3.07
2018-05-31T20:04:12.156Z,3.27
2018-05-31T20:06:38.552Z,3.07
2018-05-31T20:09:05.426Z,3.63
2018-05-31T20:11:31.772Z,3.13
2018-05-31T20:13:58.155Z,2.80
2018-05-31T20:16:24.858Z,3.53
2018-05-31T20:18:51.239Z,2.33
2018-05-31T20:21:17.729Z,1.90
2018-05-31T20:23:44.272Z,3.00
2018-05-31T20:26:10.866Z,2.17
2018-05-31T20:28:37.249Z,3.33
2018-05-31T20:31:03.585Z,2.70
2018-05-31T20:33:30.021Z,2.10
2018-05-31T20:35:56.692Z,2.83
2018-05-31T20:38:23.088Z,2.77
2018-05-31T20:40:49.457Z,2.07
2018-05-31T20:43:16.082Z,3.03
2018-05-31T20:45:42.586Z,2.30
2018-05-31T20:48:08.998Z,4.33
2018-05-31T20:50:35.392Z,2.87
2018-05-31T20:53:02.644Z,2.97
2018-05-31T20:55:29.270Z,2.23
2018-05-31T20:57:55.623Z,2.77
2018-05-31T21:00:21.983Z,3.30
2018-05-31T21:02:48.358Z,2.93
2018-05-31T21:05:14.737Z,3.63
2018-05-31T21:07:41.121Z,2.33
2018-05-31T21:10:07.525Z,3.03
2018-05-31T21:12:34.098Z,3.73
2018-05-31T21:15:00.686Z,2.50
2018-05-31T21:17:27.027Z,2.00
2018-05-31T21:19:53.457Z,3.17
2018-05-31T21:22:19.784Z,2.80
2018-05-31T21:24:46.102Z,2.80
2018-05-31T21:27:12.442Z,2.20
2018-05-31T21:29:38.835Z,2.77
2018-05-31T21:32:05.173Z,2.57
2018-05-31T21:34:31.488Z,2.10
2018-05-31T21:36:57.867Z,2.67
2018-05-31T21:39:24.256Z,2.80
2018-05-31T21:41:50.638Z,3.43
2018-05-31T21:44:18.633Z,2.83
2018-05-31T21:46:45.012Z,3.80
2018-05-31T21:49:11.415Z,1.97
2018-05-31T21:51:37.792Z,3.03
2018-05-31T21:54:04.191Z,2.00
2018-05-31T21:56:31.332Z,2.47
2018-05-31T21:58:57.713Z,2.13
2018-05-31T22:01:24.042Z,2.27
2018-05-31T22:03:51.338Z,2.40
2018-05-31T22:06:17.672Z,2.53
2018-05-31T22:08:44.050Z,2.67
2018-05-31T22:11:10.424Z,2.80
2018-05-31T22:13:37.169Z,2.40
2018-05-31T22:16:03.712Z,1.90
2018-05-31T22:18:30.093Z,2.20
2018-05-31T22:20:56.459Z,2.63
2018-05-31T22:23:22.792Z,2.77
2018-05-31T22:25:49.160Z,3.53
2018-05-31T22:28:15.671Z,2.37
2018-05-31T22:30:42.028Z,2.30
2018-05-31T22:33:08.492Z,2.20
2018-05-31T22:35:34.864Z,2.40
2018-05-31T22:38:01.203Z,2.47
2018-05-31T22:40:27.580Z,2.20
2018-05-31T22:42:53.912Z,2.60
2018-05-31T22:45:20.237Z,2.10
2018-05-31T22:47:46.601Z,2.30
2018-05-31T22:50:13.019Z,2.53
2018-05-31T22:52:39.352Z,2.43
2018-05-31T22:55:05.820Z,2.57
2018-05-31T22:57:32.216Z,2.67
2018-05-31T22:59:58.588Z,2.60
2018-05-31T23:02:24.981Z,2.30
2018-05-31T23:04:51.361Z,3.30
2018-05-31T23:07:17.692Z,2.13
2018-05-31T23:09:44.063Z,2.10
2018-05-31T23:12:11.408Z,1.73
2018-05-31T23:14:37.933Z,2.20
2018-05-31T23:17:04.444Z,2.07
2018-05-31T23:19:30.788Z,2.33
2018-05-31T23:21:57.146Z,2.23
2018-05-31T23:24:23.747Z,2.40
2018-05-31T23:26:50.123Z,2.37
2018-05-31T23:29:17.589Z,2.50
2018-05-31T23:31:43.956Z,2.13
2018-05-31T23:34:10.339Z,2.13
2018-05-31T23:36:36.672Z,1.80
2018-05-31T23:39:03.112Z,2.57
2018-05-31T23:41:30.051Z,2.40
2018-05-31T23:43:56.463Z,2.27
2018-05-31T23:46:22.866Z,2.00
2018-05-31T23:48:49.219Z,2.03
2018-05-31T23:51:16.432Z,2.60
2018-05-31T23:53:42.813Z,1.90
2018-05-31T23:56:11.260Z,2.27
2018-05-31T23:58:37.702Z,2.20
